Time;durP1;ratioP1;P1;durP2;ratioP2;P2;SDS_P1;SDS_P2;PMS_P1;PMS_P2;Temp;Humidity;BMP_temperature;BMP_pressure;BME280_temperature;BME280_humidity;BME280_pressure;Samples;Min_cycle;Max_cycle;Signal;HPM_P1;HPM_P2
2022/02/01 00:02:02;;;;;;;20.50;2.60;;;;;;;;;;5032222;28;20239;-67
2022/02/01 00:04:46;;;;;;;17.03;2.17;;;;;;;;;;5040238;28;20295;-68
2022/02/01 00:07:26;;;;;;;26.17;2.83;;;;;;;;;;5039498;28;20279;-67
2022/02/01 00:20:48;;;;;;;27.97;3.27;;;;;;;;;;5039071;28;20616;-67
2022/02/01 00:36:48;;;;;;;17.60;2.57;;;;;;;;;;5038824;28;20272;-67
2022/02/01 00:39:15;;;;;;;20.43;2.70;;;;;;;;;;5035839;28;20260;-67
2022/02/01 00:41:50;;;;;;;24.23;3.20;;;;;;;;;;5036609;28;20185;-67
2022/02/01 00:44:17;;;;;;;20.27;2.60;;;;;;;;;;5037594;28;20176;-68
2022/02/01 00:46:42;;;;;;;19.43;2.60;;;;;;;;;;5037405;28;20212;-67
2022/02/01 00:49:08;;;;;;;16.93;2.80;;;;;;;;;;5038559;28;20173;-67
2022/02/01 00:51:33;;;;;;;24.73;2.97;;;;;;;;;;5038777;28;20251;-67
2022/02/01 00:54:00;;;;;;;20.73;3.70;;;;;;;;;;5037391;28;21853;-67
2022/02/01 00:56:26;;;;;;;27.30;2.87;;;;;;;;;;5042011;28;21238;-67
2022/02/01 00:58:52;;;;;;;18.87;2.33;;;;;;;;;;5037603;28;20320;-68
2022/02/01 01:01:17;;;;;;;15.33;2.37;;;;;;;;;;5036715;28;20249;-67
2022/02/01 01:03:45;;;;;;;17.60;2.20;;;;;;;;;;5038916;28;20501;-67
2022/02/01 01:06:10;;;;;;;15.20;1.73;;;;;;;;;;5039551;28;20207;-69
2022/02/01 01:08:36;;;;;;;15.73;1.90;;;;;;;;;;5036513;28;20426;-67
2022/02/01 01:11:03;;;;;;;14.47;1.40;;;;;;;;;;5041666;28;20280;-68
2022/02/01 01:14:03;;;;;;;10.37;1.33;;;;;;;;;;5038734;28;20548;-67
2022/02/01 01:38:44;;;;;;;16.63;1.80;;;;;;;;;;5036097;28;20824;-67
2022/02/01 01:43:53;;;;;;;10.57;1.67;;;;;;;;;;5038347;28;20247;-68
2022/02/01 01:54:16;;;;;;;8.00;1.83;;;;;;;;;;5036429;28;20195;-67
2022/02/01 01:56:42;;;;;;;16.67;1.77;;;;;;;;;;5035361;28;20653;-67
2022/02/01 01:59:09;;;;;;;13.33;2.10;;;;;;;;;;5037743;28;20271;-67
2022/02/01 02:01:36;;;;;;;19.30;2.50;;;;;;;;;;5037539;28;20251;-67
2022/02/01 02:04:03;;;;;;;15.60;1.80;;;;;;;;;;5034414;28;20190;-67
2022/02/01 02:06:31;;;;;;;14.23;1.63;;;;;;;;;;5038502;28;20632;-67
2022/02/01 02:08:57;;;;;;;16.73;1.90;;;;;;;;;;5036164;28;20181;-67
2022/02/01 02:11:51;;;;;;;13.20;1.60;;;;;;;;;;5039148;28;20244;-67
2022/02/01 02:14:24;;;;;;;19.10;2.20;;;;;;;;;;5034959;28;20226;-67
2022/02/01 02:16:57;;;;;;;12.37;1.40;;;;;;;;;;5037467;28;20684;-68
2022/02/01 02:19:25;;;;;;;13.67;1.63;;;;;;;;;;5037391;28;20209;-68
2022/02/01 02:21:53;;;;;;;12.63;1.73;;;;;;;;;;5037523;28;20193;-67
2022/02/01 02:24:19;;;;;;;11.80;1.87;;;;;;;;;;5035046;28;20280;-67
2022/02/01 02:26:45;;;;;;;12.70;1.50;;;;;;;;;;5037458;28;20208;-67
2022/02/01 02:29:11;;;;;;;13.03;1.53;;;;;;;;;;5034109;28;20551;-67
2022/02/01 02:31:38;;;;;;;9.80;1.43;;;;;;;;;;5036902;28;20209;-67
2022/02/01 02:34:08;;;;;;;11.23;1.60;;;;;;;;;;5037916;28;20220;-68
2022/02/01 02:36:38;;;;;;;14.90;1.83;;;;;;;;;;5037713;28;20239;-68
2022/02/01 02:41:50;;;;;;;16.00;1.93;;;;;;;;;;5036576;28;20193;-67
2022/02/01 02:47:01;;;;;;;16.90;2.07;;;;;;;;;;5038883;28;20266;-68
2022/02/01 02:49:27;;;;;;;23.37;3.10;;;;;;;;;;5038597;28;20208;-67
2022/02/01 02:51:52;;;;;;;13.33;1.60;;;;;;;;;;5037719;28;20540;-67
2022/02/01 02:54:23;;;;;;;10.27;1.10;;;;;;;;;;5035138;28;20188;-67
2022/02/01 02:56:54;;;;;;;18.00;1.60;;;;;;;;;;5033288;28;20190;-68
2022/02/01 02:59:22;;;;;;;17.03;2.10;;;;;;;;;;5040579;28;20229;-67
2022/02/01 03:01:47;;;;;;;13.90;1.50;;;;;;;;;;5039922;28;20197;-67
2022/02/01 03:04:17;;;;;;;13.43;1.70;;;;;;;;;;5044507;28;20258;-67
2022/02/01 03:06:43;;;;;;;14.93;2.30;;;;;;;;;;5043080;28;20276;-67
2022/02/01 03:09:10;;;;;;;13.80;1.33;;;;;;;;;;5043035;28;20186;-67
2022/02/01 03:11:36;;;;;;;16.30;1.90;;;;;;;;;;5040337;28;20239;-67
2022/02/01 03:14:04;;;;;;;14.70;1.60;;;;;;;;;;5039555;28;20262;-67
2022/02/01 03:21:45;;;;;;;12.87;1.70;;;;;;;;;;5038881;28;20258;-67
2022/02/01 03:24:10;;;;;;;11.43;1.20;;;;;;;;;;5043821;28;20177;-68
2022/02/01 03:26:35;;;;;;;16.00;1.80;;;;;;;;;;5041970;28;20189;-67
2022/02/01 03:29:02;;;;;;;14.17;1.60;;;;;;;;;;5038701;28;20276;-67
2022/02/01 03:31:27;;;;;;;13.33;1.40;;;;;;;;;;5041627;28;20450;-67
2022/02/01 03:33:52;;;;;;;11.17;1.43;;;;;;;;;;5041534;28;20212;-67
2022/02/01 03:36:18;;;;;;;10.33;1.43;;;;;;;;;;5038757;28;20185;-67
2022/02/01 03:38:46;;;;;;;11.90;1.30;;;;;;;;;;5039352;28;20189;-67
2022/02/01 03:41:11;;;;;;;15.03;1.70;;;;;;;;;;5039265;28;20588;-67
2022/02/01 03:43:36;;;;;;;8.10;1.20;;;;;;;;;;5042060;28;20188;-67
2022/02/01 03:46:02;;;;;;;10.13;1.60;;;;;;;;;;5040398;28;20198;-67
2022/02/01 03:48:27;;;;;;;19.53;1.93;;;;;;;;;;5037549;28;20201;-68
2022/02/01 03:50:52;;;;;;;15.70;1.47;;;;;;;;;;5039163;28;20195;-68
2022/02/01 03:53:18;;;;;;;8.10;1.53;;;;;;;;;;5038539;28;20189;-68
2022/02/01 03:55:43;;;;;;;11.67;1.20;;;;;;;;;;5039834;28;20189;-67
2022/02/01 03:58:09;;;;;;;16.93;1.60;;;;;;;;;;5040326;28;20234;-67
2022/02/01 04:00:34;;;;;;;12.70;1.80;;;;;;;;;;5040187;28;20300;-67
2022/02/01 04:03:03;;;;;;;18.47;1.67;;;;;;;;;;5037547;28;20272;-66
2022/02/01 04:05:30;;;;;;;14.97;1.50;;;;;;;;;;5041830;28;20280;-67
2022/02/01 04:07:56;;;;;;;8.53;1.33;;;;;;;;;;5038620;28;20189;-68
2022/02/01 04:10:22;;;;;;;11.00;1.20;;;;;;;;;;5039252;28;20694;-68
2022/02/01 04:12:49;;;;;;;15.33;1.70;;;;;;;;;;5041695;28;20220;-68
2022/02/01 04:15:16;;;;;;;16.03;2.17;;;;;;;;;;5041014;28;20202;-67
2022/02/01 04:17:42;;;;;;;10.00;1.37;;;;;;;;;;5038563;28;20280;-68
2022/02/01 04:20:08;;;;;;;7.87;1.10;;;;;;;;;;5039026;28;20288;-67
2022/02/01 04:22:33;;;;;;;13.13;1.57;;;;;;;;;;5037514;28;20194;-67
2022/02/01 04:24:58;;;;;;;10.60;1.37;;;;;;;;;;5040366;28;20193;-68
2022/02/01 04:29:53;;;;;;;10.33;1.70;;;;;;;;;;5038430;28;20201;-67
2022/02/01 04:32:19;;;;;;;16.30;1.70;;;;;;;;;;5039133;28;20201;-67
2022/02/01 04:34:48;;;;;;;12.97;1.37;;;;;;;;;;5041858;28;20612;-67
2022/02/01 04:37:13;;;;;;;11.17;1.10;;;;;;;;;;5036792;28;20666;-67
2022/02/01 04:39:39;;;;;;;11.13;1.27;;;;;;;;;;5037681;28;20236;-68
2022/02/01 04:42:04;;;;;;;12.07;1.97;;;;;;;;;;5037716;28;20319;-67
2022/02/01 04:44:30;;;;;;;7.87;1.70;;;;;;;;;;5043739;28;20220;-67
2022/02/01 04:46:55;;;;;;;8.90;1.07;;;;;;;;;;5037933;28;20794;-67
2022/02/01 04:49:21;;;;;;;7.80;1.23;;;;;;;;;;5036582;28;20181;-67
2022/02/01 04:51:46;;;;;;;13.47;1.63;;;;;;;;;;5039219;28;20196;-67
2022/02/01 04:54:11;;;;;;;9.87;1.50;;;;;;;;;;5040338;28;20196;-66
2022/02/01 04:56:37;;;;;;;11.30;1.10;;;;;;;;;;5037698;28;20271;-67
2022/02/01 04:59:03;;;;;;;8.90;1.27;;;;;;;;;;5041974;28;20233;-66
2022/02/01 05:01:37;;;;;;;4.90;0.90;;;;;;;;;;5038953;28;20190;-67
2022/02/01 05:04:07;;;;;;;12.67;1.23;;;;;;;;;;5041595;28;20185;-67
2022/02/01 05:06:32;;;;;;;7.17;1.10;;;;;;;;;;5036102;28;20208;-67
2022/02/01 05:08:58;;;;;;;9.60;0.90;;;;;;;;;;5041145;28;20185;-67
2022/02/01 05:11:24;;;;;;;13.37;1.47;;;;;;;;;;5035972;28;20335;-67
2022/02/01 05:14:05;;;;;;;10.60;1.20;;;;;;;;;;5040235;28;20192;-68
2022/02/01 05:16:43;;;;;;;14.77;1.47;;;;;;;;;;5034702;28;20216;-67
2022/02/01 05:19:13;;;;;;;8.20;1.13;;;;;;;;;;5038862;28;20303;-67
2022/02/01 05:21:39;;;;;;;13.93;1.50;;;;;;;;;;5037635;28;20194;-66
2022/02/01 05:24:09;;;;;;;10.50;1.60;;;;;;;;;;5038357;28;20189;-67
2022/02/01 05:26:34;;;;;;;10.20;1.23;;;;;;;;;;5036540;28;20187;-67
2022/02/01 05:29:00;;;;;;;14.67;2.13;;;;;;;;;;5037037;28;20197;-67
2022/02/01 05:31:25;;;;;;;8.27;1.50;;;;;;;;;;5039712;28;20308;-67
2022/02/01 05:33:51;;;;;;;8.33;1.43;;;;;;;;;;5036920;28;20208;-67
2022/02/01 05:36:16;;;;;;;11.67;1.47;;;;;;;;;;5038038;28;20588;-67
2022/02/01 05:38:42;;;;;;;14.70;1.47;;;;;;;;;;5036563;28;20194;-67
2022/02/01 05:41:11;;;;;;;8.07;1.07;;;;;;;;;;5037354;28;20555;-67
2022/02/01 05:43:42;;;;;;;11.00;1.83;;;;;;;;;;5036776;28;20780;-67
2022/02/01 05:46:07;;;;;;;7.57;1.57;;;;;;;;;;5040167;28;20285;-68
2022/02/01 05:48:32;;;;;;;6.63;1.57;;;;;;;;;;5039170;28;20280;-68
2022/02/01 05:51:00;;;;;;;9.27;1.50;;;;;;;;;;5038002;28;22295;-67
2022/02/01 05:53:25;;;;;;;16.03;1.90;;;;;;;;;;5039056;28;20637;-67
2022/02/01 05:55:51;;;;;;;10.13;1.57;;;;;;;;;;5039442;28;20211;-68
2022/02/01 05:58:18;;;;;;;10.70;1.80;;;;;;;;;;5037625;28;21190;-67
2022/02/01 06:00:44;;;;;;;14.67;2.70;;;;;;;;;;5037212;28;20259;-67
2022/02/01 06:03:10;;;;;;;11.60;1.47;;;;;;;;;;5038211;28;20280;-67
2022/02/01 06:05:35;;;;;;;11.83;1.53;;;;;;;;;;5037080;28;20279;-67
2022/02/01 06:08:00;;;;;;;13.80;1.57;;;;;;;;;;5039243;28;20187;-67
2022/02/01 06:10:26;;;;;;;10.83;1.40;;;;;;;;;;5037785;28;20535;-67
2022/02/01 06:12:51;;;;;;;13.00;2.47;;;;;;;;;;5036945;28;20204;-66
2022/02/01 06:15:19;;;;;;;14.47;1.47;;;;;;;;;;5036301;28;20468;-67
2022/02/01 06:17:45;;;;;;;13.57;2.37;;;;;;;;;;5038014;28;20205;-67
2022/02/01 06:20:12;;;;;;;11.80;1.43;;;;;;;;;;5031393;28;20221;-67
2022/02/01 06:22:39;;;;;;;14.20;1.53;;;;;;;;;;5036766;28;20185;-67
2022/02/01 06:25:05;;;;;;;8.20;1.23;;;;;;;;;;5036478;28;20280;-67
2022/02/01 06:27:31;;;;;;;13.53;1.60;;;;;;;;;;5036843;28;20254;-67
2022/02/01 06:29:56;;;;;;;8.23;1.20;;;;;;;;;;5035195;28;20181;-67
2022/02/01 06:32:22;;;;;;;13.80;1.37;;;;;;;;;;5039005;28;20228;-67
2022/02/01 06:34:47;;;;;;;11.27;1.70;;;;;;;;;;5040317;28;20766;-67
2022/02/01 06:37:13;;;;;;;13.43;1.70;;;;;;;;;;5039142;28;20236;-66
2022/02/01 06:39:40;;;;;;;8.17;1.40;;;;;;;;;;5037835;28;20210;-67
2022/02/01 06:42:07;;;;;;;12.47;1.60;;;;;;;;;;5042746;28;20491;-67
2022/02/01 06:44:33;;;;;;;6.27;1.40;;;;;;;;;;5044591;28;20263;-68
2022/02/01 06:46:58;;;;;;;10.77;1.60;;;;;;;;;;5041830;28;20312;-68
2022/02/01 06:49:23;;;;;;;16.50;1.87;;;;;;;;;;5041781;28;20208;-68
2022/02/01 06:51:49;;;;;;;15.23;1.83;;;;;;;;;;5039300;28;20734;-67
2022/02/01 06:54:14;;;;;;;10.70;2.00;;;;;;;;;;5042371;28;20668;-67
2022/02/01 06:56:40;;;;;;;13.07;2.57;;;;;;;;;;5037306;28;20197;-68
2022/02/01 06:59:07;;;;;;;13.63;2.40;;;;;;;;;;5044008;28;20240;-67
2022/02/01 07:01:33;;;;;;;17.73;2.23;;;;;;;;;;5041319;28;20213;-67
2022/02/01 07:04:00;;;;;;;16.37;2.30;;;;;;;;;;5042879;28;20277;-67
2022/02/01 07:06:26;;;;;;;18.60;2.73;;;;;;;;;;5041908;28;20250;-67
2022/02/01 07:08:52;;;;;;;17.63;2.53;;;;;;;;;;5041526;28;20882;-67
2022/02/01 07:11:18;;;;;;;11.37;2.47;;;;;;;;;;5038284;28;20572;-67
2022/02/01 07:13:47;;;;;;;10.13;2.53;;;;;;;;;;5043177;28;20275;-67
2022/02/01 07:16:14;;;;;;;10.20;2.50;;;;;;;;;;5041611;28;20235;-67
2022/02/01 07:18:39;;;;;;;11.13;3.03;;;;;;;;;;5040308;28;20186;-67
2022/02/01 07:21:05;;;;;;;9.87;2.90;;;;;;;;;;5040084;28;20197;-66
2022/02/01 07:23:32;;;;;;;13.20;2.70;;;;;;;;;;5042097;28;20197;-66
2022/02/01 07:25:58;;;;;;;11.97;3.03;;;;;;;;;;5044058;28;20270;-67
2022/02/01 07:28:26;;;;;;;14.77;4.70;;;;;;;;;;5040656;28;20190;-67
2022/02/01 07:30:52;;;;;;;12.93;3.33;;;;;;;;;;5051995;28;20670;-67
2022/02/01 07:33:17;;;;;;;11.47;3.07;;;;;;;;;;5039339;28;20216;-67
2022/02/01 07:35:45;;;;;;;21.60;3.80;;;;;;;;;;5054757;28;20240;-67
2022/02/01 07:38:13;;;;;;;14.63;3.50;;;;;;;;;;5044513;28;20189;-67
2022/02/01 07:40:39;;;;;;;17.80;3.90;;;;;;;;;;5045881;28;20437;-67
2022/02/01 07:43:05;;;;;;;13.53;3.37;;;;;;;;;;5042400;28;20197;-67
2022/02/01 07:45:31;;;;;;;14.23;4.00;;;;;;;;;;5042118;28;20186;-67
2022/02/01 07:47:58;;;;;;;15.87;4.23;;;;;;;;;;5052331;28;20216;-67
2022/02/01 07:50:25;;;;;;;18.57;4.57;;;;;;;;;;5048823;28;20589;-67
2022/02/01 07:52:50;;;;;;;15.40;4.57;;;;;;;;;;5045221;28;20196;-67
2022/02/01 07:55:16;;;;;;;13.10;4.33;;;;;;;;;;5045535;28;20710;-67
2022/02/01 07:57:41;;;;;;;20.13;4.83;;;;;;;;;;5053441;28;20215;-67
2022/02/01 08:00:08;;;;;;;20.77;5.37;;;;;;;;;;5045368;28;20229;-67
2022/02/01 08:02:35;;;;;;;14.37;5.30;;;;;;;;;;5053621;28;20597;-67
2022/02/01 08:05:01;;;;;;;19.80;5.63;;;;;;;;;;5043126;28;20239;-67
2022/02/01 08:07:26;;;;;;;16.37;5.50;;;;;;;;;;5050271;28;20660;-68
2022/02/01 08:10:02;;;;;;;20.17;5.80;;;;;;;;;;5046458;28;20211;-68
2022/02/01 08:20:13;;;;;;;19.17;6.33;;;;;;;;;;5046869;28;20201;-68
2022/02/01 08:25:09;;;;;;;14.80;6.43;;;;;;;;;;5047269;28;20188;-67
2022/02/01 08:27:35;;;;;;;19.23;6.83;;;;;;;;;;5044587;28;20185;-67
2022/02/01 08:30:03;;;;;;;18.47;7.10;;;;;;;;;;5047930;28;20173;-67
2022/02/01 08:32:29;;;;;;;22.33;6.20;;;;;;;;;;5045569;28;20198;-67
2022/02/01 08:34:55;;;;;;;16.63;6.93;;;;;;;;;;5048201;28;20186;-67
2022/02/01 08:37:20;;;;;;;16.70;6.60;;;;;;;;;;5045757;28;20185;-68
2022/02/01 08:39:46;;;;;;;15.00;6.70;;;;;;;;;;5049977;28;20220;-68
2022/02/01 08:42:12;;;;;;;18.53;7.27;;;;;;;;;;5041574;28;20181;-67
2022/02/01 08:44:37;;;;;;;19.83;7.43;;;;;;;;;;5048258;28;20193;-68
2022/02/01 08:47:04;;;;;;;12.07;7.00;;;;;;;;;;5042799;28;20292;-68
2022/02/01 08:49:29;;;;;;;16.93;7.03;;;;;;;;;;5045638;28;20351;-67
2022/02/01 08:52:01;;;;;;;15.13;7.17;;;;;;;;;;5043792;28;20725;-67
2022/02/01 08:54:29;;;;;;;14.67;7.23;;;;;;;;;;5045909;28;20239;-67
2022/02/01 08:59:40;;;;;;;21.10;7.73;;;;;;;;;;5042049;28;20228;-68
2022/02/01 09:02:06;;;;;;;17.40;8.13;;;;;;;;;;5051692;28;20203;-68
2022/02/01 09:04:32;;;;;;;16.30;8.40;;;;;;;;;;5040449;28;20182;-68
2022/02/01 09:06:59;;;;;;;18.00;10.33;;;;;;;;;;5049384;28;20200;-67
2022/02/01 09:09:28;;;;;;;20.20;11.27;;;;;;;;;;5044890;28;20189;-67
2022/02/01 09:11:54;;;;;;;24.40;13.03;;;;;;;;;;5042955;28;20193;-68
2022/02/01 09:14:19;;;;;;;22.80;13.40;;;;;;;;;;5047163;28;20551;-68
2022/02/01 09:16:45;;;;;;;25.40;13.07;;;;;;;;;;5045170;28;20541;-69
2022/02/01 09:19:11;;;;;;;24.80;13.23;;;;;;;;;;5045455;28;20187;-69
2022/02/01 09:21:36;;;;;;;25.37;13.67;;;;;;;;;;5046018;28;20192;-69
2022/02/01 09:24:02;;;;;;;25.20;14.10;;;;;;;;;;5045239;28;20793;-68
2022/02/01 09:26:28;;;;;;;25.13;13.17;;;;;;;;;;5046020;28;20227;-68
2022/02/01 09:28:53;;;;;;;23.63;13.07;;;;;;;;;;5046598;28;20415;-69
2022/02/01 09:31:18;;;;;;;23.03;12.63;;;;;;;;;;5043721;28;20750;-68
2022/02/01 09:33:44;;;;;;;23.83;13.07;;;;;;;;;;5043007;28;20758;-69
2022/02/01 09:36:09;;;;;;;22.93;12.13;;;;;;;;;;5044560;28;20192;-69
2022/02/01 09:38:35;;;;;;;20.97;11.07;;;;;;;;;;5050296;28;20581;-68
2022/02/01 09:41:02;;;;;;;24.67;12.47;;;;;;;;;;5042139;28;20243;-69
2022/02/01 09:43:28;;;;;;;22.73;12.13;;;;;;;;;;5039309;28;20619;-69
2022/02/01 09:45:57;;;;;;;18.87;10.97;;;;;;;;;;5043683;28;20241;-69
2022/02/01 09:48:23;;;;;;;24.23;11.00;;;;;;;;;;5037636;28;20185;-69
2022/02/01 09:50:49;;;;;;;21.20;11.10;;;;;;;;;;5044307;28;20173;-69
2022/02/01 09:53:15;;;;;;;16.63;10.07;;;;;;;;;;5044623;28;20220;-70
2022/02/01 09:55:41;;;;;;;20.40;11.60;;;;;;;;;;5041861;28;20204;-69
2022/02/01 09:58:06;;;;;;;18.33;11.33;;;;;;;;;;5044471;28;20185;-70
2022/02/01 10:00:36;;;;;;;21.80;11.07;;;;;;;;;;5045332;28;20200;-68
2022/02/01 10:03:03;;;;;;;19.77;11.83;;;;;;;;;;5046212;28;20552;-70
2022/02/01 10:05:28;;;;;;;19.50;11.30;;;;;;;;;;5050408;28;20295;-71
2022/02/01 10:07:56;;;;;;;18.33;11.23;;;;;;;;;;5047351;28;20185;-71
2022/02/01 10:10:24;;;;;;;21.27;11.17;;;;;;;;;;5044646;28;20200;-72
2022/02/01 10:13:03;;;;;;;19.03;11.17;;;;;;;;;;5043462;28;20521;-70
2022/02/01 10:15:33;;;;;;;17.60;11.00;;;;;;;;;;5047147;28;20193;-70
2022/02/01 10:18:01;;;;;;;19.80;10.40;;;;;;;;;;5042373;28;20239;-72
2022/02/01 10:20:36;;;;;;;18.27;11.03;;;;;;;;;;5045671;28;20684;-71
2022/02/01 10:23:15;;;;;;;20.93;10.43;;;;;;;;;;5041610;28;20200;-71
2022/02/01 10:25:41;;;;;;;15.03;9.80;;;;;;;;;;5044606;28;20189;-72
2022/02/01 10:28:11;;;;;;;17.53;10.43;;;;;;;;;;5045313;28;20239;-71
2022/02/01 10:30:43;;;;;;;16.90;10.30;;;;;;;;;;5046562;28;20208;-71
2022/02/01 10:33:54;;;;;;;15.00;8.80;;;;;;;;;;5043427;28;20181;-71
2022/02/01 10:35:59;;;;;;;17.83;10.20;;;;;;;;;;5041062;28;20642;-70
2022/02/01 10:38:34;;;;;;;14.20;8.90;;;;;;;;;;5037467;28;20280;-71
2022/02/01 10:41:00;;;;;;;13.43;8.83;;;;;;;;;;5049123;28;20663;-72
2022/02/01 10:43:32;;;;;;;13.70;8.43;;;;;;;;;;5043554;28;20456;-72
2022/02/01 10:46:12;;;;;;;13.07;8.47;;;;;;;;;;5048335;28;20192;-71
2022/02/01 10:48:39;;;;;;;12.07;7.30;;;;;;;;;;5031459;28;20215;-70
2022/02/01 10:51:15;;;;;;;12.10;7.60;;;;;;;;;;5044578;28;20189;-70
2022/02/01 10:53:41;;;;;;;9.97;6.93;;;;;;;;;;5042820;28;20185;-71
2022/02/01 10:56:18;;;;;;;10.07;6.53;;;;;;;;;;5043952;28;20184;-70
2022/02/01 10:58:45;;;;;;;10.23;5.87;;;;;;;;;;5041247;28;20308;-71
2022/02/01 11:01:12;;;;;;;8.23;5.53;;;;;;;;;;5055193;28;20204;-72
2022/02/01 11:03:45;;;;;;;10.57;5.73;;;;;;;;;;5041140;28;20233;-72
2022/02/01 11:06:11;;;;;;;8.93;5.70;;;;;;;;;;5045808;28;20561;-70
2022/02/01 11:08:40;;;;;;;7.57;5.27;;;;;;;;;;5056085;28;20616;-70
2022/02/01 11:11:07;;;;;;;7.77;4.53;;;;;;;;;;5040969;28;20250;-70
2022/02/01 11:13:40;;;;;;;6.27;4.80;;;;;;;;;;5044334;28;20703;-70
2022/02/01 11:16:08;;;;;;;7.50;5.00;;;;;;;;;;5042322;28;20246;-69
2022/02/01 11:18:35;;;;;;;7.13;5.00;;;;;;;;;;5043875;28;20576;-69
2022/02/01 11:21:10;;;;;;;6.50;4.43;;;;;;;;;;5049811;28;20743;-70
2022/02/01 11:23:46;;;;;;;5.70;4.33;;;;;;;;;;5048843;28;20547;-71
2022/02/01 11:26:37;;;;;;;6.43;4.23;;;;;;;;;;5044951;28;20547;-72
2022/02/01 11:31:54;;;;;;;6.50;4.30;;;;;;;;;;5048283;28;20241;-71
2022/02/01 11:34:32;;;;;;;6.70;4.13;;;;;;;;;;5047868;28;20189;-72
2022/02/01 11:37:10;;;;;;;5.83;3.90;;;;;;;;;;5046809;28;20659;-72
2022/02/01 11:39:57;;;;;;;5.73;4.37;;;;;;;;;;5048331;28;20208;-73
2022/02/01 11:42:30;;;;;;;5.93;4.20;;;;;;;;;;5049793;28;20677;-72
2022/02/01 11:45:01;;;;;;;6.77;4.27;;;;;;;;;;5043277;28;20704;-73
2022/02/01 11:47:38;;;;;;;4.87;3.80;;;;;;;;;;5053650;28;20192;-72
2022/02/01 11:50:10;;;;;;;5.27;3.70;;;;;;;;;;5047332;28;20181;-71
2022/02/01 11:52:44;;;;;;;4.63;3.43;;;;;;;;;;5053906;28;20753;-72
2022/02/01 11:55:10;;;;;;;3.63;3.00;;;;;;;;;;5048309;28;20659;-71
2022/02/01 11:57:44;;;;;;;3.87;3.13;;;;;;;;;;5048943;28;20634;-71
2022/02/01 12:00:23;;;;;;;4.23;3.20;;;;;;;;;;5061206;28;20770;-71
2022/02/01 12:02:56;;;;;;;5.57;3.67;;;;;;;;;;5042575;28;20275;-72
2022/02/01 12:05:38;;;;;;;4.70;3.57;;;;;;;;;;5052362;28;20177;-71
2022/02/01 12:08:13;;;;;;;3.60;2.73;;;;;;;;;;5044375;28;20185;-71
2022/02/01 12:10:49;;;;;;;5.83;2.80;;;;;;;;;;5043553;28;20484;-70
2022/02/01 12:13:17;;;;;;;3.87;2.90;;;;;;;;;;5041296;28;20185;-70
2022/02/01 12:15:45;;;;;;;3.73;2.60;;;;;;;;;;5043634;28;20189;-70
2022/02/01 12:18:45;;;;;;;3.77;2.63;;;;;;;;;;5040042;28;20182;-70
2022/02/01 12:21:29;;;;;;;3.23;2.20;;;;;;;;;;5043355;28;20233;-72
2022/02/01 12:23:56;;;;;;;3.23;2.50;;;;;;;;;;5042793;28;20190;-70
2022/02/01 12:26:26;;;;;;;3.47;2.63;;;;;;;;;;5043435;28;20665;-71
2022/02/01 12:28:54;;;;;;;4.83;2.67;;;;;;;;;;5053349;28;20223;-72
2022/02/01 12:31:21;;;;;;;2.70;2.23;;;;;;;;;;5045028;28;20190;-71
2022/02/01 12:33:51;;;;;;;1.93;1.63;;;;;;;;;;5040121;28;20182;-71
2022/02/01 12:36:19;;;;;;;1.80;1.67;;;;;;;;;;5037461;28;20182;-72
2022/02/01 12:38:48;;;;;;;2.33;1.90;;;;;;;;;;5042622;28;20366;-72
2022/02/01 12:41:16;;;;;;;1.77;1.50;;;;;;;;;;5049128;28;20227;-73
2022/02/01 12:46:46;;;;;;;2.40;1.70;;;;;;;;;;5046061;28;20193;-72
2022/02/01 12:49:11;;;;;;;2.27;1.30;;;;;;;;;;5042663;28;20220;-70
2022/02/01 12:51:50;;;;;;;2.03;1.20;;;;;;;;;;5045492;28;20319;-71
2022/02/01 12:54:29;;;;;;;1.80;1.43;;;;;;;;;;5044102;28;20465;-70
2022/02/01 12:57:09;;;;;;;2.50;1.30;;;;;;;;;;5042677;28;20217;-70
2022/02/01 12:59:46;;;;;;;2.57;1.77;;;;;;;;;;5041219;28;20221;-71
2022/02/01 13:02:15;;;;;;;2.70;1.80;;;;;;;;;;5042162;28;20191;-70
2022/02/01 13:04:41;;;;;;;3.50;2.33;;;;;;;;;;5044030;28;20267;-69
2022/02/01 13:07:20;;;;;;;5.60;3.10;;;;;;;;;;5042782;28;20283;-69
2022/02/01 13:15:41;;;;;;;6.53;3.77;;;;;;;;;;5041895;28;20679;-71
2022/02/01 13:20:40;;;;;;;7.80;3.93;;;;;;;;;;5045599;28;20202;-69
2022/02/01 13:23:05;;;;;;;6.67;4.00;;;;;;;;;;5042318;28;20212;-70
2022/02/01 13:25:39;;;;;;;10.57;4.93;;;;;;;;;;5044524;28;20225;-70
2022/02/01 13:28:13;;;;;;;10.40;3.80;;;;;;;;;;5049549;28;20185;-69
2022/02/01 13:30:44;;;;;;;6.73;3.73;;;;;;;;;;5045991;28;20206;-70
2022/02/01 13:33:12;;;;;;;13.70;4.87;;;;;;;;;;5043508;28;20579;-69
2022/02/01 13:35:53;;;;;;;11.63;4.20;;;;;;;;;;5055066;28;20271;-69
2022/02/01 13:38:24;;;;;;;7.93;3.97;;;;;;;;;;5048024;28;20189;-69
2022/02/01 13:40:51;;;;;;;11.83;4.33;;;;;;;;;;5046887;28;20202;-69
2022/02/01 13:43:22;;;;;;;11.33;3.80;;;;;;;;;;5041404;28;20196;-69
2022/02/01 13:45:49;;;;;;;10.40;3.77;;;;;;;;;;5046334;28;20227;-68
2022/02/01 13:48:24;;;;;;;14.20;3.90;;;;;;;;;;5041104;28;20932;-67
2022/02/01 13:50:50;;;;;;;11.17;3.87;;;;;;;;;;5044673;28;20161;-68
2022/02/01 13:53:17;;;;;;;7.97;3.17;;;;;;;;;;5042204;28;20512;-69
2022/02/01 13:55:44;;;;;;;15.38;3.60;;;;;;;;;;5040678;28;20188;-69
2022/02/01 13:58:18;;;;;;;11.67;4.03;;;;;;;;;;5040963;28;20547;-69
2022/02/01 14:00:52;;;;;;;13.18;3.40;;;;;;;;;;5043491;28;20235;-69
2022/02/01 14:03:35;;;;;;;14.13;3.33;;;;;;;;;;5040362;28;20205;-67
2022/02/01 14:08:58;;;;;;;15.02;2.60;;;;;;;;;;5043409;28;20189;-69
2022/02/01 14:11:47;;;;;;;14.97;2.77;;;;;;;;;;5043204;28;20237;-68
2022/02/01 14:14:29;;;;;;;12.00;1.95;;;;;;;;;;5050870;28;20189;-68
2022/02/01 14:35:13;;;;;;;14.77;2.22;;;;;;;;;;5049652;28;20203;-67
2022/02/01 14:37:56;;;;;;;16.95;2.88;;;;;;;;;;5048879;28;20185;-67
2022/02/01 14:43:23;;;;;;;15.75;2.05;;;;;;;;;;5045181;28;20275;-68
2022/02/01 14:45:48;;;;;;;17.73;2.77;;;;;;;;;;5051225;28;20181;-67
2022/02/01 14:48:13;;;;;;;10.73;2.10;;;;;;;;;;5041634;28;20194;-68
2022/02/01 14:50:39;;;;;;;11.55;2.05;;;;;;;;;;5046240;28;20234;-68
2022/02/01 14:53:04;;;;;;;10.98;1.77;;;;;;;;;;5045132;28;20284;-67
2022/02/01 14:55:36;;;;;;;10.73;2.20;;;;;;;;;;5052623;28;20193;-67
2022/02/01 15:14:09;;;;;;;15.02;2.28;;;;;;;;;;5055082;28;20237;-67
2022/02/01 15:16:34;;;;;;;13.87;2.03;;;;;;;;;;5046924;28;20228;-67
2022/02/01 15:19:00;;;;;;;18.25;2.40;;;;;;;;;;5056878;28;20182;-67
2022/02/01 15:21:26;;;;;;;20.00;2.30;;;;;;;;;;5053500;28;20247;-67
2022/02/01 15:23:52;;;;;;;15.37;2.30;;;;;;;;;;5056345;28;20905;-67
2022/02/01 15:26:17;;;;;;;17.23;2.07;;;;;;;;;;5056049;28;20189;-66
2022/02/01 15:28:43;;;;;;;11.97;2.00;;;;;;;;;;5047334;28;20219;-67
2022/02/01 15:31:08;;;;;;;16.47;2.00;;;;;;;;;;5049701;28;20222;-67
2022/02/01 15:33:34;;;;;;;12.67;1.90;;;;;;;;;;5046375;28;20190;-67
2022/02/01 15:36:02;;;;;;;18.40;2.50;;;;;;;;;;5058265;28;20211;-67
2022/02/01 15:38:33;;;;;;;15.53;2.37;;;;;;;;;;5045341;28;20209;-67
2022/02/01 15:47:45;;;;;;;25.37;2.70;;;;;;;;;;5044852;28;20288;-67
2022/02/01 15:55:09;;;;;;;20.73;2.43;;;;;;;;;;5052534;28;20567;-66
2022/02/01 15:57:41;;;;;;;19.37;3.07;;;;;;;;;;5049715;28;20213;-67
2022/02/01 16:00:07;;;;;;;17.87;2.43;;;;;;;;;;5049482;28;20229;-67
2022/02/01 16:02:36;;;;;;;18.23;3.30;;;;;;;;;;5045722;28;20189;-68
2022/02/01 16:05:01;;;;;;;16.20;3.03;;;;;;;;;;5047078;28;20680;-67
2022/02/01 16:07:28;;;;;;;19.57;2.90;;;;;;;;;;5051420;28;20336;-67
2022/02/01 16:12:23;;;;;;;17.03;2.30;;;;;;;;;;5048736;28;20194;-67
2022/02/01 16:14:49;;;;;;;28.23;3.43;;;;;;;;;;5043837;28;20279;-67
2022/02/01 16:17:14;;;;;;;16.20;2.80;;;;;;;;;;5055802;28;20658;-67
2022/02/01 16:19:40;;;;;;;17.93;3.10;;;;;;;;;;5043641;28;20215;-67
2022/02/01 16:22:05;;;;;;;23.87;4.70;;;;;;;;;;5043675;28;20185;-67
2022/02/01 16:24:35;;;;;;;17.67;3.43;;;;;;;;;;5042665;28;20648;-66
2022/02/01 16:27:01;;;;;;;19.07;3.40;;;;;;;;;;5041835;28;20225;-66
2022/02/01 16:29:26;;;;;;;21.30;2.57;;;;;;;;;;5044891;28;20930;-66
2022/02/01 16:31:52;;;;;;;20.97;3.33;;;;;;;;;;5047135;28;20212;-66
2022/02/01 16:34:17;;;;;;;27.77;4.60;;;;;;;;;;5046594;28;20193;-66
2022/02/01 16:36:43;;;;;;;18.57;2.93;;;;;;;;;;5048319;28;20213;-65
2022/02/01 16:39:10;;;;;;;20.90;3.50;;;;;;;;;;5045658;28;20196;-66
2022/02/01 16:41:37;;;;;;;22.00;3.43;;;;;;;;;;5041890;28;20210;-66
2022/02/01 16:44:03;;;;;;;26.73;3.50;;;;;;;;;;5049885;28;20271;-66
2022/02/01 16:46:33;;;;;;;20.63;3.30;;;;;;;;;;5049478;28;20355;-66
2022/02/01 16:48:59;;;;;;;23.10;3.30;;;;;;;;;;5047130;28;20204;-67
2022/02/01 16:51:25;;;;;;;18.83;3.27;;;;;;;;;;5048814;28;20379;-67
2022/02/01 16:53:54;;;;;;;20.13;4.60;;;;;;;;;;5052274;28;20204;-68
2022/02/01 16:56:35;;;;;;;25.30;3.40;;;;;;;;;;5044047;28;20221;-67
2022/02/01 16:59:09;;;;;;;25.40;4.03;;;;;;;;;;5049726;28;20245;-66
2022/02/01 17:01:39;;;;;;;25.13;3.83;;;;;;;;;;5044215;28;20346;-67
2022/02/01 17:04:04;;;;;;;21.70;3.93;;;;;;;;;;5048949;28;20193;-67
2022/02/01 17:06:30;;;;;;;24.80;4.10;;;;;;;;;;5042509;28;20553;-67
2022/02/01 17:08:55;;;;;;;18.63;3.30;;;;;;;;;;5060524;28;20186;-68
2022/02/01 17:11:35;;;;;;;24.77;3.83;;;;;;;;;;5043226;28;20259;-66